createdAt,value
2018-12-18T00:01:06.882Z,15.83
2018-12-18T00:03:39.462Z,21.40
2018-12-18T00:06:12.480Z,14.43
2018-12-18T00:08:53.347Z,18.33
2018-12-18T00:11:22.926Z,19.20
2018-12-18T00:13:52.443Z,19.73
2018-12-18T00:16:23.748Z,14.75
2018-12-18T00:18:53.055Z,17.93
2018-12-18T00:21:22.621Z,15.57
2018-12-18T00:23:52.275Z,14.47
2018-12-18T00:26:21.988Z,15.80
2018-12-18T00:28:52.187Z,16.20
2018-12-18T00:31:22.182Z,14.30
2018-12-18T00:33:51.726Z,13.70
2018-12-18T00:36:21.203Z,17.53
2018-12-18T00:38:50.495Z,13.23
2018-12-18T00:41:20.455Z,15.00
2018-12-18T00:43:50.095Z,14.93
2018-12-18T00:46:20.341Z,13.60
2018-12-18T00:48:49.662Z,15.47
2018-12-18T00:51:19.476Z,11.63
2018-12-18T00:53:48.894Z,12.70
2018-12-18T00:56:18.291Z,13.30
2018-12-18T00:58:47.969Z,18.13
2018-12-18T01:01:17.368Z,14.87
2018-12-18T01:03:52.597Z,13.33
2018-12-18T01:06:18.073Z,14.23
2018-12-18T01:08:48.040Z,14.53
2018-12-18T01:11:18.185Z,13.10
2018-12-18T01:13:48.370Z,14.40
2018-12-18T01:16:17.693Z,15.20
2018-12-18T01:18:47.091Z,13.40
2018-12-18T01:21:17.065Z,13.53
2018-12-18T01:23:47.333Z,13.37
2018-12-18T01:26:16.738Z,14.53
2018-12-18T01:28:45.992Z,12.33
2018-12-18T01:31:15.323Z,14.10
2018-12-18T01:33:45.228Z,11.67
2018-12-18T01:36:14.715Z,14.98
2018-12-18T01:38:45.269Z,13.03
2018-12-18T01:41:14.801Z,14.83
2018-12-18T01:43:44.325Z,13.20
2018-12-18T01:46:14.245Z,10.20
2018-12-18T01:48:43.804Z,13.37
2018-12-18T01:51:13.183Z,12.40
2018-12-18T01:53:43.760Z,13.47
2018-12-18T01:56:13.206Z,12.87
2018-12-18T01:58:42.505Z,12.30
2018-12-18T02:01:11.921Z,10.87
2018-12-18T02:03:41.220Z,11.97
2018-12-18T02:06:11.442Z,11.00
2018-12-18T02:08:40.976Z,11.40
2018-12-18T02:11:10.638Z,10.93
2018-12-18T02:13:39.904Z,10.13
2018-12-18T02:16:09.849Z,8.73
2018-12-18T02:18:39.062Z,11.03
2018-12-18T02:21:08.292Z,9.05
2018-12-18T02:23:37.587Z,10.07
2018-12-18T02:26:07.066Z,10.23
2018-12-18T02:28:36.274Z,10.57
2018-12-18T02:31:05.591Z,13.53
2018-12-18T02:33:34.927Z,10.30
2018-12-18T02:36:04.428Z,8.87
2018-12-18T02:38:33.965Z,10.70
2018-12-18T02:41:03.339Z,9.90
2018-12-18T02:43:32.578Z,9.17
2018-12-18T02:46:02.294Z,9.40
2018-12-18T02:48:32.174Z,8.83
2018-12-18T02:51:02.266Z,11.88
2018-12-18T02:53:31.502Z,12.53
2018-12-18T02:56:01.310Z,9.97
2018-12-18T02:58:30.554Z,11.30
2018-12-18T03:01:00.451Z,11.03
2018-12-18T03:03:29.685Z,8.40
2018-12-18T03:05:59.202Z,12.20
2018-12-18T03:08:31.267Z,8.67
2018-12-18T03:11:00.516Z,10.13
2018-12-18T03:13:30.113Z,9.10
2018-12-18T03:15:59.366Z,10.57
2018-12-18T03:18:28.651Z,10.50
2018-12-18T03:20:57.952Z,10.97
2018-12-18T03:23:27.323Z,8.77
2018-12-18T03:25:56.658Z,9.57
2018-12-18T03:28:25.944Z,8.00
2018-12-18T03:30:57.497Z,11.30
2018-12-18T03:33:27.293Z,8.65
2018-12-18T03:35:56.704Z,10.43
2018-12-18T03:38:26.811Z,8.13
2018-12-18T03:40:57.346Z,11.10
2018-12-18T03:43:26.617Z,7.60
2018-12-18T03:45:55.949Z,9.90
2018-12-18T03:48:26.337Z,8.63
2018-12-18T03:50:56.100Z,8.90
2018-12-18T03:53:25.386Z,10.27
2018-12-18T03:55:54.674Z,11.07
2018-12-18T03:58:24.294Z,9.53
2018-12-18T04:00:53.594Z,8.40
2018-12-18T04:03:22.883Z,9.57
2018-12-18T04:05:52.454Z,7.70
2018-12-18T04:08:21.759Z,7.77
2018-12-18T04:10:51.111Z,7.50
2018-12-18T04:13:21.244Z,9.25
2018-12-18T04:15:50.542Z,8.63
2018-12-18T04:18:19.749Z,7.67
2018-12-18T04:20:48.982Z,8.50
2018-12-18T04:23:18.712Z,8.05
2018-12-18T04:25:48.504Z,8.90
2018-12-18T04:28:17.804Z,9.67
2018-12-18T04:30:47.079Z,11.13
2018-12-18T04:33:16.907Z,7.90
2018-12-18T04:35:47.867Z,7.17
2018-12-18T04:38:17.263Z,8.60
2018-12-18T04:40:46.942Z,9.20
2018-12-18T04:43:16.863Z,8.93
2018-12-18T04:45:46.184Z,9.97
2018-12-18T04:48:15.815Z,7.57
2018-12-18T04:50:45.397Z,6.37
2018-12-18T04:53:15.563Z,11.13
2018-12-18T04:55:44.823Z,11.00
2018-12-18T04:58:14.179Z,8.23
2018-12-18T05:00:43.438Z,7.10
2018-12-18T05:03:12.763Z,7.50
2018-12-18T05:05:42.064Z,7.93
2018-12-18T05:08:11.257Z,8.20
2018-12-18T05:10:40.683Z,7.53
2018-12-18T05:13:09.941Z,7.03
2018-12-18T05:15:39.174Z,7.43
2018-12-18T05:18:09.810Z,6.93
2018-12-18T05:20:38.993Z,6.73
2018-12-18T05:23:08.242Z,6.60
2018-12-18T05:25:37.785Z,7.83
2018-12-18T05:28:07.292Z,5.53
2018-12-18T05:30:36.832Z,7.63
2018-12-18T05:33:06.066Z,5.30
2018-12-18T05:35:35.305Z,6.30
2018-12-18T05:38:04.816Z,6.57
2018-12-18T05:40:34.050Z,6.77
2018-12-18T05:43:03.513Z,5.30
2018-12-18T05:45:32.823Z,5.37
2018-12-18T05:48:03.623Z,9.95
2018-12-18T05:50:32.934Z,12.00
2018-12-18T05:53:03.192Z,7.03
2018-12-18T05:55:32.517Z,6.53
2018-12-18T05:58:02.992Z,9.40
2018-12-18T06:00:33.180Z,4.77
2018-12-18T06:03:04.158Z,8.33
2018-12-18T06:05:33.657Z,6.90
2018-12-18T06:08:03.263Z,6.23
2018-12-18T06:10:32.756Z,6.53
2018-12-18T06:13:03.753Z,5.15
2018-12-18T06:15:33.004Z,7.80
2018-12-18T06:18:03.213Z,8.35
2018-12-18T06:20:32.518Z,8.10
2018-12-18T06:23:03.261Z,8.43
2018-12-18T06:25:32.539Z,8.00
2018-12-18T06:28:02.987Z,6.93
2018-12-18T06:30:32.214Z,10.37
2018-12-18T06:33:01.519Z,6.43
2018-12-18T06:35:32.085Z,7.70
2018-12-18T06:38:01.280Z,7.63
2018-12-18T06:40:30.562Z,7.13
2018-12-18T06:43:00.071Z,6.13
2018-12-18T06:45:29.279Z,11.20
2018-12-18T06:47:58.666Z,6.57
2018-12-18T06:50:28.191Z,7.47
2018-12-18T06:52:57.392Z,6.53
2018-12-18T06:55:26.877Z,5.63
2018-12-18T06:57:57.042Z,10.50
2018-12-18T07:00:26.251Z,8.67
2018-12-18T07:02:55.478Z,7.53
2018-12-18T07:05:24.958Z,7.13
2018-12-18T07:07:57.462Z,9.70
2018-12-18T07:10:25.841Z,11.20
2018-12-18T07:12:57.036Z,9.83
2018-12-18T07:15:26.175Z,10.00
2018-12-18T07:17:55.413Z,10.93
2018-12-18T07:20:24.722Z,12.37
2018-12-18T07:22:54.637Z,13.37
2018-12-18T07:25:23.879Z,11.90
2018-12-18T07:27:53.214Z,14.47
2018-12-18T07:30:22.374Z,19.33
2018-12-18T07:32:51.959Z,21.50
2018-12-18T07:35:23.425Z,19.37
2018-12-18T07:37:53.336Z,19.60
2018-12-18T07:40:22.583Z,22.20
2018-12-18T07:42:51.834Z,17.23
2018-12-18T07:45:21.076Z,14.07
2018-12-18T07:47:50.464Z,12.60
2018-12-18T07:50:19.714Z,11.60
2018-12-18T07:52:48.995Z,12.87
2018-12-18T07:55:19.591Z,12.70
2018-12-18T07:57:48.874Z,11.83
2018-12-18T08:00:18.427Z,11.20
2018-12-18T08:02:47.735Z,11.97
2018-12-18T08:05:17.388Z,13.00
2018-12-18T08:07:46.623Z,13.40
2018-12-18T08:10:16.422Z,10.50
2018-12-18T08:12:45.672Z,9.97
2018-12-18T08:15:15.652Z,9.50
2018-12-18T08:17:44.930Z,11.07
2018-12-18T08:20:14.641Z,10.68
2018-12-18T08:22:43.872Z,10.53
2018-12-18T08:25:13.523Z,13.87
2018-12-18T08:27:42.818Z,9.50
2018-12-18T08:30:12.719Z,10.23
2018-12-18T08:32:42.619Z,10.80
2018-12-18T08:35:12.314Z,10.00
2018-12-18T08:37:41.620Z,10.87
2018-12-18T08:40:11.300Z,9.83
2018-12-18T08:42:41.416Z,9.87
2018-12-18T08:45:11.326Z,10.23
2018-12-18T08:47:41.174Z,10.33
2018-12-18T08:50:10.939Z,9.97
2018-12-18T08:52:40.178Z,11.27
2018-12-18T08:55:09.688Z,12.18
2018-12-18T08:57:39.913Z,10.83
2018-12-18T09:00:10.426Z,12.33
2018-12-18T09:02:41.031Z,13.37
2018-12-18T09:05:10.285Z,12.33
2018-12-18T09:07:39.689Z,12.27
2018-12-18T09:10:10.355Z,13.73
2018-12-18T09:12:39.797Z,15.30
2018-12-18T09:15:14.903Z,18.67
2018-12-18T09:17:46.321Z,13.37
2018-12-18T09:20:15.866Z,14.95
2018-12-18T09:22:45.053Z,12.10
2018-12-18T09:25:14.369Z,11.57
2018-12-18T09:27:44.610Z,11.77
2018-12-18T09:30:14.032Z,12.70
2018-12-18T09:32:43.836Z,12.53
2018-12-18T09:35:13.308Z,13.30
2018-12-18T09:37:43.446Z,14.10
2018-12-18T09:40:12.991Z,15.95
2018-12-18T09:42:47.779Z,16.60
2018-12-18T09:45:16.975Z,17.10
2018-12-18T09:47:46.294Z,12.33
2018-12-18T09:50:15.534Z,10.13
2018-12-18T09:52:45.030Z,9.77
2018-12-18T09:55:14.810Z,9.00
2018-12-18T09:57:49.437Z,10.57
2018-12-18T10:00:19.061Z,10.93
2018-12-18T10:02:48.353Z,9.43
2018-12-18T10:05:17.611Z,8.43
2018-12-18T10:07:47.054Z,8.80
2018-12-18T10:10:16.287Z,9.30
2018-12-18T10:12:51.039Z,7.97
2018-12-18T10:15:20.208Z,8.83
2018-12-18T10:17:49.444Z,10.70
2018-12-18T10:20:19.076Z,10.10
2018-12-18T10:22:48.313Z,10.20
2018-12-18T10:25:17.680Z,9.25
2018-12-18T10:27:47.203Z,11.67
2018-12-18T10:30:16.959Z,10.60
2018-12-18T10:32:46.267Z,10.23
2018-12-18T10:35:15.586Z,12.07
2018-12-18T10:37:44.878Z,12.07
2018-12-18T10:40:14.248Z,9.87
2018-12-18T10:42:43.872Z,9.77
2018-12-18T10:45:16.514Z,11.35
2018-12-18T10:47:47.399Z,12.33
2018-12-18T10:50:16.627Z,11.93
2018-12-18T10:52:45.904Z,13.70
2018-12-18T10:55:16.091Z,13.55
2018-12-18T10:57:45.300Z,11.23
2018-12-18T11:02:26.978Z,11.53
2018-12-18T11:04:56.347Z,10.30
2018-12-18T11:07:25.600Z,10.00
2018-12-18T11:09:54.835Z,12.13
2018-12-18T11:12:29.423Z,10.20
2018-12-18T11:14:58.669Z,10.67
2018-12-18T11:17:27.918Z,11.63
2018-12-18T11:19:57.349Z,10.53
2018-12-18T11:22:27.623Z,10.53
2018-12-18T11:24:56.948Z,11.60
2018-12-18T11:27:26.453Z,10.07
2018-12-18T11:29:55.663Z,10.57
2018-12-18T11:32:25.000Z,10.60
2018-12-18T11:34:54.506Z,11.63
2018-12-18T11:37:25.742Z,9.27
2018-12-18T11:39:56.024Z,9.50
2018-12-18T11:42:25.660Z,11.03
2018-12-18T11:44:54.974Z,10.73
2018-12-18T11:47:24.421Z,10.50
2018-12-18T11:49:53.846Z,8.60
2018-12-18T11:52:23.136Z,10.90
2018-12-18T11:55:07.360Z,11.00
2018-12-18T11:57:36.665Z,9.97
2018-12-18T12:00:08.177Z,10.00
2018-12-18T12:02:42.840Z,9.60
2018-12-18T12:05:11.725Z,8.60
2018-12-18T12:07:41.024Z,8.80
2018-12-18T12:10:10.467Z,9.48
2018-12-18T12:12:44.598Z,8.90
2018-12-18T12:15:14.899Z,9.10
2018-12-18T12:17:45.343Z,8.70
2018-12-18T12:20:14.907Z,8.97
2018-12-18T12:22:45.147Z,8.40
2018-12-18T12:25:14.643Z,8.73
2018-12-18T12:27:49.252Z,7.90
2018-12-18T12:30:18.738Z,7.40
2018-12-18T12:32:48.160Z,6.80
2018-12-18T12:35:17.723Z,5.62
2018-12-18T12:37:47.011Z,6.10
2018-12-18T12:40:17.292Z,5.53
2018-12-18T12:42:46.850Z,5.17
2018-12-18T12:45:16.495Z,7.57
2018-12-18T12:47:50.983Z,5.23
2018-12-18T12:50:20.617Z,5.90
2018-12-18T12:52:50.126Z,5.53
2018-12-18T12:55:20.000Z,5.97
2018-12-18T12:57:50.207Z,5.20
2018-12-18T13:00:19.406Z,6.73
2018-12-18T13:02:48.820Z,5.20
2018-12-18T13:05:18.007Z,7.37
2018-12-18T13:07:48.557Z,5.90
2018-12-18T13:10:18.585Z,8.20
2018-12-18T13:12:47.809Z,5.00
2018-12-18T13:15:17.035Z,5.57
2018-12-18T13:17:46.306Z,5.70
2018-12-18T13:20:15.624Z,6.55
2018-12-18T13:22:44.900Z,4.80
2018-12-18T13:25:14.435Z,5.20
2018-12-18T13:27:43.925Z,5.43
2018-12-18T13:30:13.111Z,5.03
2018-12-18T13:32:42.619Z,5.90
2018-12-18T13:35:12.117Z,5.63
2018-12-18T13:37:41.874Z,5.07
2018-12-18T13:40:11.452Z,4.80
2018-12-18T13:42:41.119Z,4.73
2018-12-18T13:45:10.328Z,5.30
2018-12-18T13:47:39.733Z,5.23
2018-12-18T13:50:09.541Z,5.83
2018-12-18T13:52:39.206Z,6.80
2018-12-18T13:55:08.787Z,7.53
2018-12-18T13:57:38.111Z,6.30
2018-12-18T14:00:08.246Z,6.60
2018-12-18T14:02:38.322Z,5.73
2018-12-18T14:05:09.131Z,6.30
2018-12-18T14:07:38.375Z,7.60
2018-12-18T14:10:08.566Z,7.60
2018-12-18T14:12:38.356Z,7.90
2018-12-18T14:15:08.363Z,6.50
2018-12-18T14:17:38.121Z,7.50
2018-12-18T14:20:08.226Z,6.90
2018-12-18T14:22:37.522Z,7.60
2018-12-18T14:25:07.455Z,6.33
2018-12-18T14:27:36.754Z,6.63
2018-12-18T14:30:07.328Z,7.57
2018-12-18T14:32:36.704Z,6.40
2018-12-18T14:35:06.269Z,6.00
2018-12-18T14:37:35.550Z,7.63
2018-12-18T14:40:07.134Z,6.50
2018-12-18T14:42:36.372Z,7.43
2018-12-18T14:45:06.615Z,6.63
2018-12-18T14:47:36.362Z,6.40
2018-12-18T14:50:07.720Z,6.87
2018-12-18T14:52:37.355Z,8.03
2018-12-18T14:55:07.140Z,6.70
2018-12-18T14:57:36.383Z,6.73
2018-12-18T15:00:06.994Z,6.90
2018-12-18T15:02:36.648Z,8.53
2018-12-18T15:05:06.601Z,9.30
2018-12-18T15:07:35.839Z,7.73
2018-12-18T15:10:07.391Z,8.30
2018-12-18T15:12:39.994Z,7.83
2018-12-18T15:15:09.404Z,7.17
2018-12-18T15:17:38.568Z,7.27
2018-12-18T15:20:09.706Z,8.00
2018-12-18T15:22:39.304Z,8.00
2018-12-18T15:25:10.045Z,9.47
2018-12-18T15:27:43.205Z,8.50
2018-12-18T15:30:12.589Z,7.23
2018-12-18T15:32:41.853Z,8.87
2018-12-18T15:35:12.275Z,7.58
2018-12-18T15:37:42.694Z,7.97
2018-12-18T15:40:12.062Z,7.67
2018-12-18T15:42:41.477Z,8.33
2018-12-18T15:45:11.751Z,8.20
2018-12-18T15:47:40.975Z,8.50
2018-12-18T15:50:10.782Z,8.50
2018-12-18T15:52:40.067Z,7.30
2018-12-18T15:55:09.651Z,8.10
2018-12-18T15:57:39.018Z,8.53
2018-12-18T16:00:09.354Z,8.93
2018-12-18T16:02:39.207Z,9.23
2018-12-18T16:05:08.981Z,7.67
2018-12-18T16:07:38.224Z,8.70
2018-12-18T16:10:08.815Z,8.33
2018-12-18T16:12:38.156Z,9.87
2018-12-18T16:15:08.174Z,10.10
2018-12-18T16:17:42.759Z,11.00
2018-12-18T16:20:12.471Z,10.82
2018-12-18T16:22:41.709Z,11.10
2018-12-18T16:25:11.186Z,11.13
2018-12-18T16:27:40.621Z,9.50
2018-12-18T16:30:10.928Z,11.77
2018-12-18T16:32:40.263Z,12.50
2018-12-18T16:35:09.841Z,15.13
2018-12-18T16:37:39.482Z,11.77
2018-12-18T16:40:10.409Z,16.47
2018-12-18T16:42:39.753Z,14.23
2018-12-18T16:45:10.415Z,16.90
2018-12-18T16:47:41.054Z,18.30
2018-12-18T16:50:10.386Z,22.13
2018-12-18T16:52:39.911Z,19.43
2018-12-18T16:55:09.275Z,21.70
2018-12-18T16:57:38.796Z,19.57
2018-12-18T17:00:10.740Z,19.53
2018-12-18T17:02:40.397Z,25.20
2018-12-18T17:05:10.219Z,19.40
2018-12-18T17:07:40.287Z,22.67
2018-12-18T17:10:10.062Z,22.50
2018-12-18T17:12:43.863Z,27.07
2018-12-18T17:15:13.098Z,22.60
2018-12-18T17:17:42.373Z,21.43
2018-12-18T17:20:12.854Z,23.42
2018-12-18T17:22:42.108Z,23.00
2018-12-18T17:25:11.399Z,22.50
2018-12-18T17:27:40.611Z,22.53
2018-12-18T17:30:10.890Z,23.97
2018-12-18T17:32:40.126Z,23.77
2018-12-18T17:35:09.617Z,24.87
2018-12-18T17:37:38.995Z,25.57
2018-12-18T17:40:09.486Z,26.80
2018-12-18T17:42:39.098Z,25.67
2018-12-18T17:45:09.207Z,25.70
2018-12-18T17:47:38.496Z,26.50
2018-12-18T17:50:09.805Z,27.70
2018-12-18T17:52:39.153Z,27.57
2018-12-18T17:55:08.426Z,31.10
2018-12-18T17:57:39.111Z,26.67
2018-12-18T18:00:09.274Z,31.60
2018-12-18T18:02:39.491Z,34.03
2018-12-18T18:05:09.083Z,31.33
2018-12-18T18:07:42.855Z,27.53
2018-12-18T18:10:10.251Z,26.70
2018-12-18T18:12:39.549Z,25.43
2018-12-18T18:15:11.022Z,26.63
2018-12-18T18:17:40.274Z,30.37
2018-12-18T18:20:11.102Z,24.70
2018-12-18T18:22:40.714Z,29.80
2018-12-18T18:25:11.249Z,26.17
2018-12-18T18:27:40.939Z,20.07
2018-12-18T18:30:10.686Z,25.90
2018-12-18T18:32:40.268Z,23.63
2018-12-18T18:35:09.878Z,26.30
2018-12-18T18:37:39.266Z,23.13
2018-12-18T18:40:10.419Z,24.90
2018-12-18T18:42:39.843Z,24.67
2018-12-18T18:45:09.322Z,22.40
2018-12-18T18:47:39.088Z,20.83
2018-12-18T18:50:09.402Z,19.70
2018-12-18T18:52:38.666Z,20.80
2018-12-18T18:55:08.031Z,24.13
2018-12-18T18:57:37.594Z,22.47
2018-12-18T19:00:08.971Z,20.17
2018-12-18T19:02:39.943Z,21.33
2018-12-18T19:05:10.021Z,21.70
2018-12-18T19:07:40.300Z,20.43
2018-12-18T19:10:10.249Z,22.67
2018-12-18T19:12:40.817Z,22.17
2018-12-18T19:15:10.007Z,23.37
2018-12-18T19:17:39.737Z,19.40
2018-12-18T19:20:09.051Z,24.17
2018-12-18T19:22:38.349Z,21.47
2018-12-18T19:25:08.928Z,23.37
2018-12-18T19:27:38.488Z,22.50
2018-12-18T19:30:08.404Z,21.03
2018-12-18T19:32:37.706Z,25.10
2018-12-18T19:35:07.943Z,21.87
2018-12-18T19:37:37.775Z,19.47
2018-12-18T19:40:08.632Z,24.03
2018-12-18T19:42:38.574Z,19.93
2018-12-18T19:45:10.897Z,19.70
2018-12-18T19:47:42.041Z,19.40
2018-12-18T19:50:12.861Z,22.80
2018-12-18T19:55:21.870Z,19.00
2018-12-18T19:57:51.472Z,21.93
2018-12-18T20:00:21.872Z,19.10
2018-12-18T20:02:51.248Z,19.57
2018-12-18T20:05:21.112Z,23.80
2018-12-18T20:07:50.699Z,23.53
2018-12-18T20:10:20.038Z,22.53
2018-12-18T20:12:50.559Z,22.50
2018-12-18T20:15:22.307Z,21.83
2018-12-18T20:17:52.594Z,23.90
2018-12-18T20:20:24.755Z,21.30
2018-12-18T20:22:54.007Z,18.17
2018-12-18T20:25:24.369Z,19.00
2018-12-18T20:27:55.818Z,20.93
2018-12-18T20:30:25.060Z,23.03
2018-12-18T20:32:54.358Z,19.53
2018-12-18T20:35:31.231Z,22.50
2018-12-18T20:38:01.014Z,18.63
2018-12-18T20:40:31.642Z,20.83
2018-12-18T20:43:01.552Z,19.70
2018-12-18T20:45:31.604Z,22.35
2018-12-18T20:48:00.939Z,19.80
2018-12-18T20:50:36.451Z,21.73
2018-12-18T20:53:07.748Z,23.12
2018-12-18T20:55:38.187Z,23.63
2018-12-18T20:58:14.615Z,25.10
2018-12-18T21:00:44.279Z,24.00
2018-12-18T21:03:13.867Z,23.40
2018-12-18T21:05:43.139Z,24.63
2018-12-18T21:08:23.193Z,22.07
2018-12-18T21:10:47.939Z,25.50
2018-12-18T21:13:22.623Z,24.70
2018-12-18T21:15:51.924Z,22.47
2018-12-18T21:18:22.165Z,20.90
2018-12-18T21:20:51.458Z,23.60
2018-12-18T21:23:21.663Z,23.00
2018-12-18T21:25:51.868Z,23.87
2018-12-18T21:28:23.156Z,23.37
2018-12-18T21:30:52.346Z,26.50
2018-12-18T21:33:21.677Z,26.17
2018-12-18T21:35:50.995Z,25.53
2018-12-18T21:38:20.354Z,25.70
2018-12-18T21:40:50.109Z,28.10
2018-12-18T21:43:19.412Z,24.57
2018-12-18T21:45:49.209Z,29.70
2018-12-18T21:48:18.488Z,27.57
2018-12-18T21:50:48.051Z,25.60
2018-12-18T21:53:17.452Z,27.73
2018-12-18T21:55:46.973Z,26.83
2018-12-18T21:58:16.806Z,29.40
2018-12-18T22:00:46.765Z,23.20
2018-12-18T22:03:16.340Z,27.10
2018-12-18T22:05:45.585Z,29.90
2018-12-18T22:08:15.148Z,27.40
2018-12-18T22:10:44.438Z,29.90
2018-12-18T22:13:13.753Z,28.90
2018-12-18T22:15:43.343Z,28.67
2018-12-18T22:18:13.491Z,32.07
2018-12-18T22:20:42.803Z,29.60
2018-12-18T22:23:12.295Z,32.98
2018-12-18T22:25:41.969Z,32.07
2018-12-18T22:28:12.260Z,31.00
2018-12-18T22:30:41.553Z,33.70
2018-12-18T22:33:10.803Z,29.53
2018-12-18T22:35:40.250Z,33.23
2018-12-18T22:38:09.872Z,28.97
2018-12-18T22:40:39.436Z,32.00
2018-12-18T22:43:08.750Z,36.33
2018-12-18T22:45:38.239Z,34.03
2018-12-18T22:48:07.466Z,31.30
2018-12-18T22:50:37.016Z,32.67
2018-12-18T22:53:07.544Z,36.85
2018-12-18T22:55:36.827Z,33.40
2018-12-18T22:58:07.551Z,31.15
2018-12-18T23:00:42.277Z,33.50
2018-12-18T23:03:12.252Z,37.57
2018-12-18T23:05:41.647Z,33.33
2018-12-18T23:08:10.941Z,36.40
2018-12-18T23:10:40.771Z,39.23
2018-12-18T23:13:12.075Z,29.50
2018-12-18T23:15:41.946Z,33.23
2018-12-18T23:18:11.532Z,33.27
2018-12-18T23:20:40.821Z,39.10
2018-12-18T23:23:10.335Z,37.33
2018-12-18T23:25:39.714Z,37.07
2018-12-18T23:28:09.610Z,37.33
2018-12-18T23:30:38.959Z,35.67
2018-12-18T23:33:09.595Z,38.60
2018-12-18T23:35:39.088Z,36.83
2018-12-18T23:38:08.665Z,37.43
2018-12-18T23:40:38.425Z,37.33
2018-12-18T23:43:07.796Z,35.57
2018-12-18T23:45:37.090Z,35.97
2018-12-18T23:48:07.795Z,41.58
2018-12-18T23:50:38.864Z,35.67
2018-12-18T23:53:08.083Z,35.37
2018-12-18T23:55:37.612Z,37.93
2018-12-18T23:58:07.723Z,35.20
